Terminal Aerodrome Forecast
Issued by NWS

Home | Current Version | Previous Version | Text Only | Print | Product List | Glossary On
Versions: 1 2 3 4 5 6 7 8 9 10 11 12
000
FTUS42 TJSJ 041140
TAFNCM
TAF
TNCM 041140Z 0412/0512 09004KT P6SM VCSH FEW020
     FM041300 11010KT P6SM VCSH FEW018 SCT030
     FM042300 09008KT P6SM FEW020=

USA.gov is the U.S. government's official web portal to all federal, state and local government web resources and services.